Aurora, CO (80015)

7:33 AM MST on February 25, 2017 (GMT -0700)
Pheasant Run | | Change Station

Elev 5761 ft 39.63 °N, 104.80 °W | Updated 33 seconds ago

Partly Cloudy
Partly Cloudy
14.7 °F
Feels Like 15 °F
N
1.0
Wind Variable Wind from South

Today
High -- | Low -- °F
--% Chance of Precip.
Yesterday
High -- | Low -- °F
Precip. -- in
Pressure 30.13 in
Visibility 10.0 miles
Clouds Few 8000 ft
Scattered Clouds 15000 ft
Mostly Cloudy 22000 ft
Windchill 15 °F
Dew Point 6 °F
Humidity 68%
Rainfall 0.00 in
Snow Depth Not available.
6:37 AM 5:47 PM
Waning Crescent, 1% visible
METAR KAPA 251353Z 21005KT 10SM FEW080 SCT150 BKN220 M11/M18 A2992 RMK AO2 SLP201 T11111178
Pressure 30.13 in
Visibility 10.0 miles
Clouds Few 8000 ft
Scattered Clouds 15000 ft
Mostly Cloudy 22000 ft
Windchill 15 °F
Dew Point 6 °F
Humidity 68%
Rainfall 0.00 in
Snow Depth Not available.
6:37 AM 5:47 PM
Waning Crescent, 1% visible
METAR KAPA 251353Z 21005KT 10SM FEW080 SCT150 BKN220 M11/M18 A2992 RMK AO2 SLP201 T11111178

Get Your Daily Forecast Email!

Thanks for signing up!

Be on the lookout for a verification email in your inbox.

You'll start receiving the daily forecast at 8 AM.

×

10-Day Weather Forecast

Almanac

Astronomy

Feb. 25, 2017 Rise Set
Actual Time
Civil Twilight
Nautical Twilight
Astronomical Twilight
Moon
Length of Visible Light
Length of Day
Tomorrow will be .
, % of the Moon is Illuminated

Today's Extremes

State Highs State Lows

Community

WunderPhotos

Upload Photos

1,962,540 photos uploaded!

WunderBlog® & News

Nearby

Air Quality

  Air Quality AQ Index Pollutant
Not available.

Snow Depth

Station Depth Elevation

Earthquake Activity

City Distance Mag. Time & Date
Minimum magnitude displayed is 2.5.

Coastal Water Temperatures

Place Temperature

Stations

Nearby Weather Stations

Station Location Temp. Windchill Dew Point Humidity Wind Precip. Elev Updated Type
                   

Watches & Warnings

There are currently no watches in effect.